sensor_id;sensor_type;location;lat;lon;timestamp;pressure;altitude;pressure_sealevel;temperature;humidity
74936;BME280;63501;55.570;37.488;2023-12-20T00:02:17;97133.91;;;24.22;35.43
74936;BME280;63501;55.570;37.488;2023-12-20T00:04:44;97150.53;;;24.25;35.90
74936;BME280;63501;55.570;37.488;2023-12-20T00:07:12;97151.06;;;24.24;35.52
74936;BME280;63501;55.570;37.488;2023-12-20T00:09:39;97141.84;;;24.23;35.85
74936;BME280;63501;55.570;37.488;2023-12-20T00:12:07;97151.06;;;24.24;35.63
74936;BME280;63501;55.570;37.488;2023-12-20T00:14:35;97146.72;;;24.23;36.15
74936;BME280;63501;55.570;37.488;2023-12-20T00:17:03;97146.50;;;24.21;36.10
74936;BME280;63501;55.570;37.488;2023-12-20T00:19:30;97150.31;;;24.23;36.27
74936;BME280;63501;55.570;37.488;2023-12-20T00:21:57;97139.13;;;24.18;35.47
74936;BME280;63501;55.570;37.488;2023-12-20T00:24:25;97153.13;;;24.23;36.00
74936;BME280;63501;55.570;37.488;2023-12-20T00:26:52;97153.88;;;24.24;35.56
74936;BME280;63501;55.570;37.488;2023-12-20T00:29:19;97146.72;;;24.23;35.59
74936;BME280;63501;55.570;37.488;2023-12-20T00:31:48;97151.06;;;24.24;35.93
74936;BME280;63501;55.570;37.488;2023-12-20T00:34:15;97146.72;;;24.23;35.99
74936;BME280;63501;55.570;37.488;2023-12-20T00:36:42;97149.56;;;24.23;35.87
74936;BME280;63501;55.570;37.488;2023-12-20T00:39:09;97158.34;;;24.19;36.02
74936;BME280;63501;55.570;37.488;2023-12-20T00:41:37;97153.88;;;24.24;36.00
74936;BME280;63501;55.570;37.488;2023-12-20T00:44:04;97170.84;;;24.24;35.46
74936;BME280;63501;55.570;37.488;2023-12-20T00:46:30;97154.97;;;24.21;35.44
74936;BME280;63501;55.570;37.488;2023-12-20T00:48:59;97157.25;;;24.22;35.49
74936;BME280;63501;55.570;37.488;2023-12-20T00:51:26;97162.16;;;24.22;35.36
74936;BME280;63501;55.570;37.488;2023-12-20T00:53:53;97167.78;;;24.22;35.50
74936;BME280;63501;55.570;37.488;2023-12-20T00:56:20;97155.75;;;24.21;35.71
74936;BME280;63501;55.570;37.488;2023-12-20T00:58:47;97147.06;;;24.19;35.75
74936;BME280;63501;55.570;37.488;2023-12-20T01:01:15;97144.44;;;24.21;36.01
74936;BME280;63501;55.570;37.488;2023-12-20T01:03:42;97141.63;;;24.21;35.66
74936;BME280;63501;55.570;37.488;2023-12-20T01:06:11;97129.56;;;24.21;35.95
74936;BME280;63501;55.570;37.488;2023-12-20T01:08:38;97135.00;;;24.19;35.56
74936;BME280;63501;55.570;37.488;2023-12-20T01:11:06;97138.03;;;24.21;35.63
74936;BME280;63501;55.570;37.488;2023-12-20T01:13:33;97145.22;;;24.22;35.82
74936;BME280;63501;55.570;37.488;2023-12-20T01:16:00;97138.03;;;24.21;35.87
74936;BME280;63501;55.570;37.488;2023-12-20T01:18:28;97135.22;;;24.21;35.49
74936;BME280;63501;55.570;37.488;2023-12-20T01:20:55;97126.75;;;24.21;35.70
74936;BME280;63501;55.570;37.488;2023-12-20T01:23:24;97130.88;;;24.20;35.63
74936;BME280;63501;55.570;37.488;2023-12-20T01:25:51;97127.81;;;24.18;35.87
74936;BME280;63501;55.570;37.488;2023-12-20T01:28:19;97128.06;;;24.20;35.58
74936;BME280;63501;55.570;37.488;2023-12-20T01:30:46;97123.94;;;24.21;35.70
74936;BME280;63501;55.570;37.488;2023-12-20T01:33:13;97133.16;;;24.21;35.82
74936;BME280;63501;55.570;37.488;2023-12-20T01:35:41;97125.22;;;24.20;35.54
74936;BME280;63501;55.570;37.488;2023-12-20T01:38:09;97124.78;;;24.16;35.99
74936;BME280;63501;55.570;37.488;2023-12-20T01:40:37;97140.09;;;24.20;35.67
74936;BME280;63501;55.570;37.488;2023-12-20T01:43:08;97133.47;;;24.18;35.74
74936;BME280;63501;55.570;37.488;2023-12-20T01:45:35;97131.41;;;24.18;36.18
74936;BME280;63501;55.570;37.488;2023-12-20T01:48:04;97122.16;;;24.18;36.34
74936;BME280;63501;55.570;37.488;2023-12-20T01:50:32;97107.28;;;24.17;35.99
74936;BME280;63501;55.570;37.488;2023-12-20T01:53:00;97117.28;;;24.18;36.20
74936;BME280;63501;55.570;37.488;2023-12-20T01:55:31;97110.13;;;24.17;36.02
74936;BME280;63501;55.570;37.488;2023-12-20T01:58:01;97101.44;;;24.15;36.31
74936;BME280;63501;55.570;37.488;2023-12-20T02:00:29;97098.06;;;24.17;35.74
74936;BME280;63501;55.570;37.488;2023-12-20T02:03:01;97100.34;;;24.18;35.69
74936;BME280;63501;55.570;37.488;2023-12-20T02:05:29;97091.44;;;24.14;35.80
74936;BME280;63501;55.570;37.488;2023-12-20T02:07:56;97094.69;;;24.18;35.88
74936;BME280;63501;55.570;37.488;2023-12-20T02:10:24;97084.50;;;24.15;35.47
74936;BME280;63501;55.570;37.488;2023-12-20T02:12:51;97084.72;;;24.17;35.57
74936;BME280;63501;55.570;37.488;2023-12-20T02:15:20;97078.09;;;24.15;35.62
74936;BME280;63501;55.570;37.488;2023-12-20T02:17:48;97078.09;;;24.15;35.54
74936;BME280;63501;55.570;37.488;2023-12-20T02:20:35;97084.50;;;24.15;35.14
74936;BME280;63501;55.570;37.488;2023-12-20T02:23:04;97079.63;;;24.16;35.42
74936;BME280;63501;55.570;37.488;2023-12-20T02:25:31;97079.41;;;24.14;35.18
74936;BME280;63501;55.570;37.488;2023-12-20T02:27:59;97079.63;;;24.16;35.01
74936;BME280;63501;55.570;37.488;2023-12-20T02:30:26;97078.09;;;24.15;35.17
74936;BME280;63501;55.570;37.488;2023-12-20T02:32:53;97072.44;;;24.15;34.87
74936;BME280;63501;55.570;37.488;2023-12-20T02:35:20;97077.34;;;24.14;35.13
74936;BME280;63501;55.570;37.488;2023-12-20T02:37:47;97078.41;;;24.11;34.90
74936;BME280;63501;55.570;37.488;2023-12-20T02:40:16;97073.53;;;24.12;34.73
74936;BME280;63501;55.570;37.488;2023-12-20T02:42:44;97079.94;;;24.12;35.01
74936;BME280;63501;55.570;37.488;2023-12-20T02:45:11;97083.28;;;24.11;34.57
74936;BME280;63501;55.570;37.488;2023-12-20T02:47:38;97078.97;;;24.10;35.01
74936;BME280;63501;55.570;37.488;2023-12-20T02:50:06;97080.25;;;24.09;34.76
74936;BME280;63501;55.570;37.488;2023-12-20T02:52:33;97080.03;;;24.07;35.26
74936;BME280;63501;55.570;37.488;2023-12-20T02:55:00;97075.47;;;24.04;35.22
74936;BME280;63501;55.570;37.488;2023-12-20T02:57:28;97076.53;;;24.00;35.03
74936;BME280;63501;55.570;37.488;2023-12-20T02:59:55;97078.06;;;24.01;34.83
74936;BME280;63501;55.570;37.488;2023-12-20T03:02:22;97088.06;;;24.02;35.17
74936;BME280;63501;55.570;37.488;2023-12-20T03:04:49;97073.50;;;23.98;34.93
74936;BME280;63501;55.570;37.488;2023-12-20T03:07:17;97065.25;;;24.00;34.75
74936;BME280;63501;55.570;37.488;2023-12-20T03:09:44;97071.91;;;24.03;34.87
74936;BME280;63501;55.570;37.488;2023-12-20T03:12:11;97069.38;;;23.99;35.18
74936;BME280;63501;55.570;37.488;2023-12-20T03:14:40;97059.41;;;23.98;35.70
74936;BME280;63501;55.570;37.488;2023-12-20T03:17:07;97063.44;;;24.03;35.31
74936;BME280;63501;55.570;37.488;2023-12-20T03:19:34;97059.59;;;24.00;35.08
74936;BME280;63501;55.570;37.488;2023-12-20T03:22:01;97066.25;;;24.03;35.02
74936;BME280;63501;55.570;37.488;2023-12-20T03:24:28;97062.53;;;23.95;35.04
74936;BME280;63501;55.570;37.488;2023-12-20T03:26:56;97074.81;;;23.97;34.72
74936;BME280;63501;55.570;37.488;2023-12-20T03:29:23;97081.78;;;23.96;35.13
74936;BME280;63501;55.570;37.488;2023-12-20T03:31:57;97065.91;;;23.93;35.25
74936;BME280;63501;55.570;37.488;2023-12-20T03:34:25;97073.59;;;23.93;35.16
74936;BME280;63501;55.570;37.488;2023-12-20T03:36:51;97071.09;;;23.89;35.18
74936;BME280;63501;55.570;37.488;2023-12-20T03:39:18;97069.38;;;23.86;34.67
74936;BME280;63501;55.570;37.488;2023-12-20T03:41:56;97078.69;;;23.81;35.19
74936;BME280;63501;55.570;37.488;2023-12-20T03:44:25;97072.50;;;23.83;35.07
74936;BME280;63501;55.570;37.488;2023-12-20T03:46:55;97067.50;;;23.75;35.22
74936;BME280;63501;55.570;37.488;2023-12-20T03:49:22;97064.97;;;23.72;35.49
74936;BME280;63501;55.570;37.488;2023-12-20T03:51:52;97071.06;;;23.76;35.43
74936;BME280;63501;55.570;37.488;2023-12-20T03:54:20;97075.19;;;23.75;35.78
74936;BME280;63501;55.570;37.488;2023-12-20T03:56:47;97075.97;;;23.75;35.84
74936;BME280;63501;55.570;37.488;2023-12-20T03:59:14;97085.72;;;23.74;35.47
74936;BME280;63501;55.570;37.488;2023-12-20T04:01:43;97083.13;;;23.77;35.46
74936;BME280;63501;55.570;37.488;2023-12-20T04:04:13;97079.00;;;23.78;35.45
74936;BME280;63501;55.570;37.488;2023-12-20T04:06:40;97085.63;;;23.80;35.54
74936;BME280;63501;55.570;37.488;2023-12-20T04:09:10;97087.69;;;23.80;35.51
74936;BME280;63501;55.570;37.488;2023-12-20T04:11:37;97082.56;;;23.78;35.58
74936;BME280;63501;55.570;37.488;2023-12-20T04:14:04;97101.25;;;23.81;35.25
74936;BME280;63501;55.570;37.488;2023-12-20T04:16:32;97097.13;;;23.82;35.44
74936;BME280;63501;55.570;37.488;2023-12-20T04:19:00;97089.97;;;23.81;35.26
74936;BME280;63501;55.570;37.488;2023-12-20T04:21:28;97093.00;;;23.83;35.86
74936;BME280;63501;55.570;37.488;2023-12-20T04:23:55;97085.09;;;23.82;36.09
74936;BME280;63501;55.570;37.488;2023-12-20T04:26:23;97104.00;;;23.87;36.37
74936;BME280;63501;55.570;37.488;2023-12-20T04:28:50;97098.34;;;23.87;36.91
74936;BME280;63501;55.570;37.488;2023-12-20T04:31:17;97093.25;;;23.85;36.88
74936;BME280;63501;55.570;37.488;2023-12-20T04:33:44;97100.16;;;23.84;37.29
74936;BME280;63501;55.570;37.488;2023-12-20T04:36:12;97097.03;;;23.88;37.81
74936;BME280;63501;55.570;37.488;2023-12-20T04:38:41;97106.94;;;23.94;37.69
74936;BME280;63501;55.570;37.488;2023-12-20T04:41:08;97099.97;;;23.95;37.42
74936;BME280;63501;55.570;37.488;2023-12-20T04:43:37;97103.56;;;23.96;37.43
74936;BME280;63501;55.570;37.488;2023-12-20T04:46:04;97100.44;;;23.99;37.74
74936;BME280;63501;55.570;37.488;2023-12-20T04:48:31;97097.81;;;24.01;37.76
74936;BME280;63501;55.570;37.488;2023-12-20T04:50:58;97111.94;;;24.01;37.61
74936;BME280;63501;55.570;37.488;2023-12-20T04:53:26;97101.94;;;24.00;37.17
74936;BME280;63501;55.570;37.488;2023-12-20T04:55:54;97102.75;;;24.14;36.82
74936;BME280;63501;55.570;37.488;2023-12-20T04:58:21;97111.81;;;24.39;36.23
74936;BME280;63501;55.570;37.488;2023-12-20T05:00:49;97093.13;;;24.63;36.13
74936;BME280;63501;55.570;37.488;2023-12-20T05:03:18;97106.66;;;24.91;35.73
74936;BME280;63501;55.570;37.488;2023-12-20T05:05:45;97093.94;;;25.11;34.92
74936;BME280;63501;55.570;37.488;2023-12-20T05:08:12;97106.16;;;25.40;34.50
74936;BME280;63501;55.570;37.488;2023-12-20T05:10:40;97096.56;;;25.64;34.14
74936;BME280;63501;55.570;37.488;2023-12-20T05:13:09;97114.78;;;25.89;33.76
74936;BME280;63501;55.570;37.488;2023-12-20T05:15:36;97104.22;;;26.10;33.67
74936;BME280;63501;55.570;37.488;2023-12-20T05:18:04;97106.84;;;26.37;33.35
74936;BME280;63501;55.570;37.488;2023-12-20T05:20:31;97104.97;;;26.60;32.81
74936;BME280;63501;55.570;37.488;2023-12-20T05:22:58;97105.78;;;26.76;32.54
74936;BME280;63501;55.570;37.488;2023-12-20T05:25:25;97109.28;;;26.90;32.08
74936;BME280;63501;55.570;37.488;2023-12-20T05:27:52;97113.09;;;27.00;32.19
74936;BME280;63501;55.570;37.488;2023-12-20T05:30:21;97110.50;;;27.10;31.91
74936;BME280;63501;55.570;37.488;2023-12-20T05:32:48;97115.47;;;27.17;31.54
74936;BME280;63501;55.570;37.488;2023-12-20T05:35:16;97116.84;;;27.31;31.41
74936;BME280;63501;55.570;37.488;2023-12-20T05:37:43;97110.41;;;27.38;31.17
74936;BME280;63501;55.570;37.488;2023-12-20T05:40:10;97116.88;;;27.47;30.95
74936;BME280;63501;55.570;37.488;2023-12-20T05:42:38;97111.41;;;27.49;30.81
74936;BME280;63501;55.570;37.488;2023-12-20T05:45:05;97104.03;;;27.53;30.38
74936;BME280;63501;55.570;37.488;2023-12-20T05:47:34;97112.72;;;27.55;30.48
74936;BME280;63501;55.570;37.488;2023-12-20T05:50:01;97110.84;;;27.58;30.29
74936;BME280;63501;55.570;37.488;2023-12-20T05:52:29;97110.09;;;27.57;30.39
74936;BME280;63501;55.570;37.488;2023-12-20T05:54:57;97106.69;;;27.59;30.39
74936;BME280;63501;55.570;37.488;2023-12-20T05:57:26;97113.72;;;27.65;30.47
74936;BME280;63501;55.570;37.488;2023-12-20T05:59:54;97114.53;;;27.74;30.50
74936;BME280;63501;55.570;37.488;2023-12-20T06:02:21;97112.44;;;27.82;30.76
74936;BME280;63501;55.570;37.488;2023-12-20T06:04:50;97110.16;;;27.88;30.68
74936;BME280;63501;55.570;37.488;2023-12-20T06:07:17;97118.13;;;27.97;30.88
74936;BME280;63501;55.570;37.488;2023-12-20T06:09:44;97114.75;;;28.06;30.64
74936;BME280;63501;55.570;37.488;2023-12-20T06:12:12;97119.84;;;28.15;30.72
74936;BME280;63501;55.570;37.488;2023-12-20T06:14:39;97121.72;;;28.20;30.64
74936;BME280;63501;55.570;37.488;2023-12-20T06:17:06;97122.88;;;28.25;30.61
74936;BME280;63501;55.570;37.488;2023-12-20T06:19:33;97128.94;;;28.52;30.57
74936;BME280;63501;55.570;37.488;2023-12-20T06:22:02;97125.44;;;28.84;30.35
74936;BME280;63501;55.570;37.488;2023-12-20T06:24:30;97128.63;;;29.11;30.07
74936;BME280;63501;55.570;37.488;2023-12-20T06:26:59;97133.84;;;29.38;30.34
74936;BME280;63501;55.570;37.488;2023-12-20T06:29:26;97121.22;;;29.56;29.93
74936;BME280;63501;55.570;37.488;2023-12-20T06:31:54;97127.44;;;29.70;29.99
74936;BME280;63501;55.570;37.488;2023-12-20T06:34:21;97124.97;;;29.66;29.86
74936;BME280;63501;55.570;37.488;2023-12-20T06:36:48;97125.19;;;29.61;30.00
74936;BME280;63501;55.570;37.488;2023-12-20T06:39:20;97126.34;;;29.50;30.44
74936;BME280;63501;55.570;37.488;2023-12-20T06:41:47;97122.06;;;29.41;30.23
74936;BME280;63501;55.570;37.488;2023-12-20T06:44:14;97120.56;;;29.33;30.34
74936;BME280;63501;55.570;37.488;2023-12-20T06:46:41;97123.47;;;29.25;30.51
74936;BME280;63501;55.570;37.488;2023-12-20T06:49:08;97120.63;;;29.17;30.53
74936;BME280;63501;55.570;37.488;2023-12-20T06:51:35;97123.50;;;29.10;30.90
74936;BME280;63501;55.570;37.488;2023-12-20T06:54:03;97117.81;;;29.10;30.89
74936;BME280;63501;55.570;37.488;2023-12-20T06:56:31;97113.25;;;29.14;30.69
74936;BME280;63501;55.570;37.488;2023-12-20T06:58:59;97115.72;;;29.10;30.39
74936;BME280;63501;55.570;37.488;2023-12-20T07:01:26;97121.81;;;29.07;30.39
74936;BME280;63501;55.570;37.488;2023-12-20T07:03:53;97122.22;;;29.03;30.47
74936;BME280;63501;55.570;37.488;2023-12-20T07:06:20;97123.94;;;28.98;30.63
74936;BME280;63501;55.570;37.488;2023-12-20T07:08:48;97131.88;;;28.92;30.52
74936;BME280;63501;55.570;37.488;2023-12-20T07:11:15;97129.44;;;28.89;30.58
74936;BME280;63501;55.570;37.488;2023-12-20T07:13:44;97130.75;;;28.88;30.69
74936;BME280;63501;55.570;37.488;2023-12-20T07:16:11;97125.25;;;28.90;30.82
74936;BME280;63501;55.570;37.488;2023-12-20T07:18:38;97131.34;;;28.94;30.89
74936;BME280;63501;55.570;37.488;2023-12-20T07:21:06;97125.44;;;28.92;30.71
74936;BME280;63501;55.570;37.488;2023-12-20T07:23:33;97146.88;;;29.01;30.82
74936;BME280;63501;55.570;37.488;2023-12-20T07:26:01;97141.53;;;29.05;30.68
74936;BME280;63501;55.570;37.488;2023-12-20T07:28:29;97148.19;;;29.07;31.02
74936;BME280;63501;55.570;37.488;2023-12-20T07:30:58;97147.59;;;29.09;30.64
74936;BME280;63501;55.570;37.488;2023-12-20T07:33:25;97146.28;;;29.10;30.91
74936;BME280;63501;55.570;37.488;2023-12-20T07:35:53;97154.81;;;29.10;30.76
74936;BME280;63501;55.570;37.488;2023-12-20T07:38:20;97159.16;;;29.11;30.51
74936;BME280;63501;55.570;37.488;2023-12-20T07:40:47;97155.38;;;29.08;30.64
74936;BME280;63501;55.570;37.488;2023-12-20T07:43:14;97159.19;;;29.03;30.79
74936;BME280;63501;55.570;37.488;2023-12-20T07:45:42;97168.69;;;28.98;30.66
74936;BME280;63501;55.570;37.488;2023-12-20T07:48:10;97158.28;;;28.85;30.75
74936;BME280;63501;55.570;37.488;2023-12-20T07:50:37;97178.56;;;28.82;30.72
74936;BME280;63501;55.570;37.488;2023-12-20T07:53:05;97167.38;;;28.76;30.52
74936;BME280;63501;55.570;37.488;2023-12-20T07:55:32;97177.03;;;28.73;30.70
74936;BME280;63501;55.570;37.488;2023-12-20T07:58:00;97168.34;;;28.71;30.94
74936;BME280;63501;55.570;37.488;2023-12-20T08:00:27;97167.97;;;28.75;30.91
74936;BME280;63501;55.570;37.488;2023-12-20T08:02:54;97164.16;;;28.80;30.81
74936;BME280;63501;55.570;37.488;2023-12-20T08:05:23;97166.22;;;28.87;30.43
74936;BME280;63501;55.570;37.488;2023-12-20T08:07:50;97172.09;;;28.89;30.37
74936;BME280;63501;55.570;37.488;2023-12-20T08:10:17;97161.13;;;28.93;30.33
74936;BME280;63501;55.570;37.488;2023-12-20T08:12:44;97169.44;;;28.98;30.69
74936;BME280;63501;55.570;37.488;2023-12-20T08:15:11;97163.72;;;29.06;30.32
74936;BME280;63501;55.570;37.488;2023-12-20T08:17:40;97157.66;;;29.10;30.18
74936;BME280;63501;55.570;37.488;2023-12-20T08:20:08;97158.41;;;29.10;30.25
74936;BME280;63501;55.570;37.488;2023-12-20T08:22:36;97161.03;;;29.16;30.31
74936;BME280;63501;55.570;37.488;2023-12-20T08:25:04;97157.63;;;29.17;29.96
74936;BME280;63501;55.570;37.488;2023-12-20T08:27:31;97155.34;;;29.16;30.27
74936;BME280;63501;55.570;37.488;2023-12-20T08:29:59;97151.22;;;29.09;30.02
74936;BME280;63501;55.570;37.488;2023-12-20T08:32:26;97147.81;;;29.03;30.23
74936;BME280;63501;55.570;37.488;2023-12-20T08:34:54;97147.81;;;28.88;30.19
74936;BME280;63501;55.570;37.488;2023-12-20T08:37:21;97148.59;;;28.81;30.25
74936;BME280;63501;55.570;37.488;2023-12-20T08:39:50;97146.91;;;28.78;30.09
74936;BME280;63501;55.570;37.488;2023-12-20T08:42:17;97143.28;;;28.77;30.43
74936;BME280;63501;55.570;37.488;2023-12-20T08:44:45;97148.06;;;28.75;30.37
74936;BME280;63501;55.570;37.488;2023-12-20T08:47:12;97151.06;;;28.77;30.60
74936;BME280;63501;55.570;37.488;2023-12-20T08:49:41;97152.41;;;28.76;30.36
74936;BME280;63501;55.570;37.488;2023-12-20T08:52:09;97148.59;;;28.73;30.62
74936;BME280;63501;55.570;37.488;2023-12-20T08:54:36;97149.94;;;28.72;30.34
74936;BME280;63501;55.570;37.488;2023-12-20T08:57:05;97153.94;;;28.69;30.58
74936;BME280;63501;55.570;37.488;2023-12-20T08:59:32;97151.66;;;28.67;30.72
74936;BME280;63501;55.570;37.488;2023-12-20T09:02:00;97157.34;;;28.67;30.40
74936;BME280;63501;55.570;37.488;2023-12-20T09:04:27;97154.91;;;28.64;30.42
74936;BME280;63501;55.570;37.488;2023-12-20T09:06:54;97146.00;;;28.60;30.42
74936;BME280;63501;55.570;37.488;2023-12-20T09:09:21;97162.13;;;28.57;30.67
74936;BME280;63501;55.570;37.488;2023-12-20T09:11:49;97151.69;;;28.52;30.64
74936;BME280;63501;55.570;37.488;2023-12-20T09:14:18;97154.31;;;28.50;30.65
74936;BME280;63501;55.570;37.488;2023-12-20T09:16:45;97152.63;;;28.47;30.71
74936;BME280;63501;55.570;37.488;2023-12-20T09:19:13;97158.13;;;28.45;30.65
74936;BME280;63501;55.570;37.488;2023-12-20T09:21:40;97156.81;;;28.46;30.57
74936;BME280;63501;55.570;37.488;2023-12-20T09:24:07;97148.84;;;28.44;30.58
74936;BME280;63501;55.570;37.488;2023-12-20T09:26:35;97155.09;;;28.43;30.67
74936;BME280;63501;55.570;37.488;2023-12-20T09:29:02;97148.28;;;28.46;30.68
74936;BME280;63501;55.570;37.488;2023-12-20T09:31:31;97145.06;;;28.42;30.74
74936;BME280;63501;55.570;37.488;2023-12-20T09:33:58;97146.56;;;28.43;30.85
74936;BME280;63501;55.570;37.488;2023-12-20T09:36:25;97140.72;;;28.41;30.74
74936;BME280;63501;55.570;37.488;2023-12-20T09:38:52;97130.69;;;28.40;30.61
74936;BME280;63501;55.570;37.488;2023-12-20T09:41:20;97127.63;;;28.38;30.41
74936;BME280;63501;55.570;37.488;2023-12-20T09:43:47;97124.03;;;28.37;30.80
74936;BME280;63501;55.570;37.488;2023-12-20T09:46:17;97125.94;;;28.35;30.54
74936;BME280;63501;55.570;37.488;2023-12-20T09:48:50;97140.16;;;28.35;30.72
74936;BME280;63501;55.570;37.488;2023-12-20T09:51:18;97130.28;;;28.36;30.66
74936;BME280;63501;55.570;37.488;2023-12-20T09:53:45;97130.28;;;28.36;30.76
74936;BME280;63501;55.570;37.488;2023-12-20T09:56:14;97124.78;;;28.38;30.62
74936;BME280;63501;55.570;37.488;2023-12-20T09:58:41;97133.50;;;28.40;30.29
74936;BME280;63501;55.570;37.488;2023-12-20T10:01:09;97132.72;;;28.39;30.08
74936;BME280;63501;55.570;37.488;2023-12-20T10:03:38;97144.50;;;28.36;30.15
74936;BME280;63501;55.570;37.488;2023-12-20T10:06:08;97147.72;;;28.40;30.23
74936;BME280;63501;55.570;37.488;2023-12-20T10:08:36;97143.16;;;28.37;30.35
74936;BME280;63501;55.570;37.488;2023-12-20T10:11:04;97141.66;;;28.36;30.12
74936;BME280;63501;55.570;37.488;2023-12-20T10:13:32;97130.88;;;28.34;29.97
74936;BME280;63501;55.570;37.488;2023-12-20T10:15:59;97146.59;;;28.35;30.03
74936;BME280;63501;55.570;37.488;2023-12-20T10:18:29;97138.81;;;28.36;29.89
74936;BME280;63501;55.570;37.488;2023-12-20T10:20:56;97141.44;;;28.34;29.90
74936;BME280;63501;55.570;37.488;2023-12-20T10:23:25;97142.78;;;28.33;30.13
74936;BME280;63501;55.570;37.488;2023-12-20T10:25:59;97149.97;;;28.34;30.18
74936;BME280;63501;55.570;37.488;2023-12-20T10:28:26;97148.47;;;28.33;29.97
74936;BME280;63501;55.570;37.488;2023-12-20T10:30:54;97150.56;;;28.32;30.14
74936;BME280;63501;55.570;37.488;2023-12-20T10:33:26;97138.41;;;28.32;30.09
74936;BME280;63501;55.570;37.488;2023-12-20T10:35:55;97133.88;;;28.29;30.15
74936;BME280;63501;55.570;37.488;2023-12-20T10:38:22;97137.84;;;28.33;30.36
74936;BME280;63501;55.570;37.488;2023-12-20T10:40:51;97133.50;;;28.32;30.48
74936;BME280;63501;55.570;37.488;2023-12-20T10:43:21;97137.66;;;28.31;30.11
74936;BME280;63501;55.570;37.488;2023-12-20T10:45:52;97125.53;;;28.31;30.49
74936;BME280;63501;55.570;37.488;2023-12-20T10:48:20;97136.13;;;28.30;30.46
74936;BME280;63501;55.570;37.488;2023-12-20T10:50:55;97134.47;;;28.35;30.58
74936;BME280;63501;55.570;37.488;2023-12-20T10:53:24;97143.16;;;28.37;30.46
74936;BME280;63501;55.570;37.488;2023-12-20T10:55:56;97149.41;;;28.43;30.70
74936;BME280;63501;55.570;37.488;2023-12-20T10:58:29;97151.69;;;28.52;30.47
74936;BME280;63501;55.570;37.488;2023-12-20T11:01:00;97153.75;;;28.59;30.58
74936;BME280;63501;55.570;37.488;2023-12-20T11:03:31;97154.69;;;28.69;30.69
74936;BME280;63501;55.570;37.488;2023-12-20T11:06:03;97152.03;;;28.79;30.42
74936;BME280;63501;55.570;37.488;2023-12-20T11:08:35;97145.16;;;28.90;30.52
74936;BME280;63501;55.570;37.488;2023-12-20T11:11:10;97140.22;;;29.06;30.43
74936;BME280;63501;55.570;37.488;2023-12-20T11:13:44;97153.47;;;29.18;30.19
74936;BME280;63501;55.570;37.488;2023-12-20T11:16:15;97159.13;;;29.26;30.45
74936;BME280;63501;55.570;37.488;2023-12-20T11:18:45;97151.88;;;29.33;30.37
74936;BME280;63501;55.570;37.488;2023-12-20T11:21:12;97153.38;;;29.34;29.90
74936;BME280;63501;55.570;37.488;2023-12-20T11:23:42;97160.25;;;29.31;30.35
74936;BME280;63501;55.570;37.488;2023-12-20T11:26:11;97159.50;;;29.22;29.97
74936;BME280;63501;55.570;37.488;2023-12-20T11:28:38;97154.38;;;29.21;29.56
74936;BME280;63501;55.570;37.488;2023-12-20T11:31:05;97160.09;;;29.21;29.78
74936;BME280;63501;55.570;37.488;2023-12-20T11:33:36;97144.56;;;29.14;29.42
74936;BME280;63501;55.570;37.488;2023-12-20T11:36:13;97162.75;;;29.11;29.50
74936;BME280;63501;55.570;37.488;2023-12-20T11:38:54;97156.72;;;29.07;29.88
74936;BME280;63501;55.570;37.488;2023-12-20T11:41:24;97156.16;;;29.09;29.43
74936;BME280;63501;55.570;37.488;2023-12-20T11:43:53;97172.81;;;29.12;29.17
74936;BME280;63501;55.570;37.488;2023-12-20T11:46:22;97165.59;;;29.19;29.29
74936;BME280;63501;55.570;37.488;2023-12-20T11:48:49;97162.94;;;29.21;29.17
74936;BME280;63501;55.570;37.488;2023-12-20T11:51:17;97156.09;;;29.16;28.99
74936;BME280;63501;55.570;37.488;2023-12-20T11:53:44;97161.09;;;29.08;29.08
74936;BME280;63501;55.570;37.488;2023-12-20T11:56:14;97154.09;;;29.02;28.78
74936;BME280;63501;55.570;37.488;2023-12-20T11:58:42;97159.78;;;28.94;29.04
74936;BME280;63501;55.570;37.488;2023-12-20T12:01:09;97169.81;;;28.87;28.80
74936;BME280;63501;55.570;37.488;2023-12-20T12:03:37;97167.94;;;28.82;28.79
74936;BME280;63501;55.570;37.488;2023-12-20T12:06:05;97172.69;;;28.80;28.83
74936;BME280;63501;55.570;37.488;2023-12-20T12:08:33;97170.97;;;28.77;28.83
74936;BME280;63501;55.570;37.488;2023-12-20T12:11:00;97176.50;;;28.75;28.78
74936;BME280;63501;55.570;37.488;2023-12-20T12:13:28;97175.53;;;28.72;28.93
74936;BME280;63501;55.570;37.488;2023-12-20T12:15:56;97176.69;;;28.69;29.17
74936;BME280;63501;55.570;37.488;2023-12-20T12:18:23;97179.31;;;28.67;28.83
74936;BME280;63501;55.570;37.488;2023-12-20T12:21:00;97171.00;;;28.61;28.63
74936;BME280;63501;55.570;37.488;2023-12-20T12:23:28;97170.25;;;28.61;28.74
74936;BME280;63501;55.570;37.488;2023-12-20T12:25:55;97174.25;;;28.58;28.87
74936;BME280;63501;55.570;37.488;2023-12-20T12:28:26;97176.13;;;28.55;28.50
74936;BME280;63501;55.570;37.488;2023-12-20T12:30:58;97176.53;;;28.52;28.86
74936;BME280;63501;55.570;37.488;2023-12-20T12:33:26;97177.06;;;28.50;28.69
74936;BME280;63501;55.570;37.488;2023-12-20T12:35:54;97184.09;;;28.49;28.92
74936;BME280;63501;55.570;37.488;2023-12-20T12:38:21;97178.22;;;28.47;28.80
74936;BME280;63501;55.570;37.488;2023-12-20T12:40:49;97185.25;;;28.46;28.86
74936;BME280;63501;55.570;37.488;2023-12-20T12:43:18;97187.31;;;28.45;28.52
74936;BME280;63501;55.570;37.488;2023-12-20T12:45:46;97185.78;;;28.44;28.66
74936;BME280;63501;55.570;37.488;2023-12-20T12:48:15;97188.44;;;28.42;28.67
74936;BME280;63501;55.570;37.488;2023-12-20T12:50:42;97194.53;;;28.46;28.77
74936;BME280;63501;55.570;37.488;2023-12-20T12:53:09;97178.97;;;28.48;28.62
74936;BME280;63501;55.570;37.488;2023-12-20T12:55:36;97192.63;;;28.49;28.85